Time;durP1;ratioP1;P1;durP2;ratioP2;P2;SDS_P1;SDS_P2;PMS_P1;PMS_P2;Temp;Humidity;BMP_temperature;BMP_pressure;BME280_temperature;BME280_humidity;BME280_pressure;Samples;Min_cycle;Max_cycle;Signal;HPM_P1;HPM_P2
2023/02/02 00:01:57;;;;;;;13.25;9.65;;;21.60;99.90;;;;;;5047362;28;20029;-56
2023/02/02 00:04:31;;;;;;;14.80;9.48;;;21.70;99.90;;;;;;5049796;28;20021;-53
2023/02/02 00:06:57;;;;;;;12.82;9.35;;;21.60;99.90;;;;;;5048457;28;20124;-59
2023/02/02 00:09:27;;;;;;;13.38;9.02;;;21.60;99.90;;;;;;5050754;28;20063;-60
2023/02/02 00:11:54;;;;;;;13.35;8.88;;;21.60;99.90;;;;;;5051161;28;20029;-59
2023/02/02 00:14:20;;;;;;;10.85;8.45;;;21.60;99.90;;;;;;5051883;28;20026;-60
2023/02/02 00:16:51;;;;;;;14.30;9.27;;;21.60;99.90;;;;;;5034054;28;20021;-60
2023/02/02 00:19:20;;;;;;;14.50;9.38;;;21.60;99.90;;;;;;5052009;28;20029;-60
2023/02/02 00:21:46;;;;;;;14.13;8.57;;;21.60;99.90;;;;;;5052021;28;20032;-60
2023/02/02 00:24:14;;;;;;;11.45;8.00;;;21.50;99.90;;;;;;5033996;28;20055;-58
2023/02/02 00:26:41;;;;;;;13.40;8.77;;;21.50;99.90;;;;;;5051487;28;20025;-61
2023/02/02 00:29:14;;;;;;;12.85;8.45;;;21.50;99.90;;;;;;5051597;28;20082;-58
2023/02/02 00:31:40;;;;;;;14.32;8.68;;;21.50;99.90;;;;;;5046911;28;20088;-53
2023/02/02 00:34:06;;;;;;;14.02;8.55;;;21.50;99.90;;;;;;5029954;28;20496;-54
2023/02/02 00:36:31;;;;;;;12.68;7.75;;;21.50;99.90;;;;;;5026907;28;20504;-54
2023/02/02 00:38:57;;;;;;;13.98;8.98;;;21.50;99.90;;;;;;5051239;28;20021;-55
2023/02/02 00:41:23;;;;;;;13.13;8.27;;;21.40;99.90;;;;;;5052367;28;20040;-53
2023/02/02 00:45:14;;;;;;;12.73;8.20;;;21.40;99.90;;;;;;5051478;28;20031;-52
2023/02/02 00:46:38;;;;;;;11.75;7.47;;;21.40;99.90;;;;;;5056157;28;20029;-56
2023/02/02 00:49:04;;;;;;;13.27;8.13;;;21.40;99.90;;;;;;5059043;28;20540;-53
2023/02/02 00:51:30;;;;;;;12.52;7.93;;;21.40;99.90;;;;;;5033460;28;20116;-56
2023/02/02 00:53:56;;;;;;;13.77;8.02;;;21.40;99.90;;;;;;5051185;28;20024;-56
2023/02/02 00:56:21;;;;;;;10.18;7.47;;;21.40;99.90;;;;;;5053316;28;20095;-57
2023/02/02 00:58:47;;;;;;;13.35;8.10;;;21.40;99.90;;;;;;5054038;28;20029;-62
2023/02/02 01:01:17;;;;;;;11.48;7.72;;;21.40;99.90;;;;;;5030838;23;20072;-49
2023/02/02 01:03:43;;;;;;;11.95;7.93;;;21.30;99.90;;;;;;5019865;28;20065;-48
2023/02/02 01:06:09;;;;;;;13.75;7.78;;;21.30;99.90;;;;;;5047863;28;20365;-48
2023/02/02 01:08:35;;;;;;;11.75;6.85;;;21.30;99.90;;;;;;5054835;28;20025;-48
2023/02/02 01:11:01;;;;;;;11.20;7.72;;;21.30;99.90;;;;;;5054502;28;20388;-49
2023/02/02 01:13:27;;;;;;;13.82;7.90;;;21.30;99.90;;;;;;5037309;28;20477;-48
2023/02/02 01:15:56;;;;;;;11.43;7.18;;;21.30;99.90;;;;;;5054805;28;20025;-48
2023/02/02 01:18:23;;;;;;;10.27;6.85;;;21.30;99.90;;;;;;5054230;28;20025;-49
2023/02/02 01:21:00;;;;;;;10.38;6.60;;;21.30;99.90;;;;;;5054757;28;20044;-48
2023/02/02 01:23:27;;;;;;;15.52;7.68;;;21.30;99.90;;;;;;5054810;28;20032;-47
2023/02/02 01:25:58;;;;;;;11.32;7.00;;;21.30;99.90;;;;;;5035894;28;20065;-49
2023/02/02 01:28:25;;;;;;;9.93;6.72;;;21.20;99.90;;;;;;5033160;28;20032;-48
2023/02/02 01:30:51;;;;;;;12.90;7.18;;;21.20;99.90;;;;;;5035746;28;20556;-48
2023/02/02 01:33:17;;;;;;;10.18;6.45;;;21.30;99.90;;;;;;5054497;28;20477;-49
2023/02/02 01:35:48;;;;;;;10.90;6.57;;;21.20;99.90;;;;;;5053763;28;20542;-49
2023/02/02 01:38:14;;;;;;;10.10;6.80;;;21.20;99.90;;;;;;5053700;28;20033;-49
2023/02/02 01:40:54;;;;;;;9.95;6.43;;;21.20;99.90;;;;;;5054188;28;20025;-49
2023/02/02 01:43:29;;;;;;;12.73;7.00;;;21.20;99.90;;;;;;5053805;28;20032;-49
2023/02/02 01:45:56;;;;;;;11.23;6.03;;;21.10;99.90;;;;;;5054072;28;20021;-49
2023/02/02 01:48:27;;;;;;;;;;;21.10;99.90;;;;;;5054558;28;20358;-49
2023/02/02 01:50:58;;;;;;;11.13;6.50;;;21.10;99.90;;;;;;5053712;28;19912;-48
2023/02/02 01:53:24;;;;;;;10.65;6.93;;;21.10;99.90;;;;;;5054049;28;20024;-49
2023/02/02 01:55:51;;;;;;;10.15;6.50;;;21.10;99.90;;;;;;5053918;28;20048;-49
2023/02/02 01:58:23;;;;;;;10.23;6.57;;;21.10;99.90;;;;;;5034928;28;20028;-49
2023/02/02 02:00:50;;;;;;;11.05;6.88;;;21.00;99.90;;;;;;5063534;23;20094;-56
2023/02/02 02:03:19;;;;;;;9.98;6.65;;;21.00;99.90;;;;;;5053816;28;20032;-58
2023/02/02 02:05:53;;;;;;;8.45;5.90;;;21.00;99.90;;;;;;5053979;28;20424;-58
2023/02/02 02:08:26;;;;;;;9.43;6.00;;;21.00;99.90;;;;;;5053683;28;20029;-59
2023/02/02 02:10:52;;;;;;;9.07;5.78;;;20.90;99.90;;;;;;5053899;28;20041;-57
2023/02/02 02:13:21;;;;;;;9.05;5.65;;;20.90;99.90;;;;;;5053797;28;20033;-58
2023/02/02 02:16:20;;;;;;;9.80;6.88;;;20.90;99.90;;;;;;5053751;28;20021;-58
2023/02/02 02:19:25;;;;;;;10.15;6.65;;;20.90;99.90;;;;;;5053691;28;20488;-57
2023/02/02 02:28:20;;;;;;;11.93;6.38;;;20.80;99.90;;;;;;5053755;28;20120;-58
2023/02/02 02:30:58;;;;;;;11.20;5.90;;;20.80;99.90;;;;;;5053474;28;20078;-59
2023/02/02 02:33:29;;;;;;;;;;;20.80;99.90;;;;;;5053980;28;20511;-59
2023/02/02 02:36:18;;;;;;;11.65;6.15;;;20.80;99.90;;;;;;5053467;28;19909;-58
2023/02/02 02:39:10;;;;;;;8.40;5.82;;;20.70;99.90;;;;;;5053436;28;20040;-61
2023/02/02 02:41:45;;;;;;;11.57;6.55;;;20.70;99.90;;;;;;5052701;28;20393;-62
2023/02/02 02:44:15;;;;;;;8.93;5.93;;;20.70;99.90;;;;;;5053402;28;20028;-63
2023/02/02 02:46:41;;;;;;;9.10;6.15;;;20.70;99.90;;;;;;5053333;28;20032;-60
2023/02/02 02:49:11;;;;;;;8.10;5.75;;;20.60;99.90;;;;;;5053290;28;20484;-62
2023/02/02 02:51:51;;;;;;;9.55;5.43;;;20.70;99.90;;;;;;5053137;28;20373;-57
2023/02/02 02:54:25;;;;;;;8.32;5.47;;;20.70;99.90;;;;;;5053158;28;20028;-56
2023/02/02 02:56:55;;;;;;;8.55;5.95;;;20.60;99.90;;;;;;5053094;28;20469;-56
2023/02/02 02:59:48;;;;;;;10.90;5.78;;;20.60;99.90;;;;;;5053443;28;20013;-58
2023/02/02 03:02:36;;;;;;;10.27;6.25;;;20.60;99.90;;;;;;5053055;28;20029;-58
2023/02/02 03:05:20;;;;;;;8.80;5.88;;;20.50;99.90;;;;;;5053202;28;20036;-56
2023/02/02 03:08:15;;;;;;;9.98;6.05;;;20.60;99.90;;;;;;5052979;28;20437;-58
2023/02/02 03:10:44;;;;;;;7.88;5.72;;;20.50;99.90;;;;;;5039367;28;20134;-57
2023/02/02 03:13:12;;;;;;;8.85;5.75;;;20.50;99.90;;;;;;5052772;28;20093;-55
2023/02/02 03:15:44;;;;;;;;;;;20.50;99.90;;;;;;5053258;28;20039;-56
2023/02/02 03:18:17;;;;;;;8.20;5.90;;;20.50;99.90;;;;;;5052117;28;19920;-57
2023/02/02 03:20:45;;;;;;;9.10;5.85;;;20.50;99.90;;;;;;5052755;28;20046;-57
2023/02/02 03:23:11;;;;;;;8.90;5.72;;;20.50;99.90;;;;;;5052490;28;20082;-55
2023/02/02 03:25:36;;;;;;;9.98;6.07;;;20.40;99.90;;;;;;5052576;28;20497;-56
2023/02/02 03:28:03;;;;;;;8.93;5.90;;;20.40;99.90;;;;;;5052587;28;20052;-56
2023/02/02 03:30:30;;;;;;;10.48;5.43;;;20.40;99.90;;;;;;5052479;28;20091;-56
2023/02/02 03:32:56;;;;;;;9.02;6.00;;;20.40;99.90;;;;;;5052422;28;20532;-56
2023/02/02 03:35:22;;;;;;;10.63;5.78;;;20.40;99.90;;;;;;5052372;28;20028;-57
2023/02/02 03:37:48;;;;;;;10.20;5.82;;;20.40;99.90;;;;;;5052298;28;20435;-56
2023/02/02 03:40:14;;;;;;;9.90;5.72;;;20.40;99.90;;;;;;5052396;28;20021;-56
2023/02/02 03:42:39;;;;;;;9.63;6.20;;;20.40;99.90;;;;;;5052515;28;20033;-56
2023/02/02 03:45:06;;;;;;;9.73;5.72;;;20.30;99.90;;;;;;5052459;28;20377;-56
2023/02/02 03:47:32;;;;;;;8.30;5.50;;;20.30;99.90;;;;;;5052120;28;20033;-56
2023/02/02 03:49:58;;;;;;;9.00;5.40;;;20.30;99.90;;;;;;5052108;28;20035;-56
2023/02/02 03:52:24;;;;;;;10.15;6.40;;;20.30;99.90;;;;;;5052075;28;20123;-57
2023/02/02 03:54:50;;;;;;;8.90;5.82;;;20.30;99.90;;;;;;5052203;28;20017;-57
2023/02/02 03:57:16;;;;;;;9.98;5.85;;;20.30;99.90;;;;;;5052194;28;20079;-57
2023/02/02 03:59:42;;;;;;;11.05;6.53;;;20.30;99.90;;;;;;5052535;28;20099;-56
2023/02/02 04:02:08;;;;;;;9.15;5.72;;;20.20;99.90;;;;;;5052298;28;20063;-58
2023/02/02 04:04:33;;;;;;;10.02;6.25;;;20.20;99.90;;;;;;5052307;28;20087;-58
2023/02/02 04:07:00;;;;;;;8.60;5.93;;;20.20;99.90;;;;;;5052007;28;20021;-57
2023/02/02 04:09:26;;;;;;;10.07;6.07;;;20.20;99.90;;;;;;5052154;28;20469;-56
2023/02/02 04:11:52;;;;;;;8.75;5.50;;;20.20;99.90;;;;;;5051887;28;20040;-56
2023/02/02 04:14:18;;;;;;;8.88;5.57;;;20.20;99.90;;;;;;5052035;28;20037;-56
2023/02/02 04:16:44;;;;;;;9.13;5.45;;;20.10;99.90;;;;;;5052004;28;20060;-56
2023/02/02 04:19:11;;;;;;;8.85;5.90;;;20.20;99.90;;;;;;5051972;28;20041;-57
2023/02/02 04:21:38;;;;;;;8.70;5.57;;;20.20;99.90;;;;;;5052249;28;20070;-56
2023/02/02 04:24:05;;;;;;;8.90;5.60;;;20.20;99.90;;;;;;5051809;28;20546;-55
2023/02/02 04:26:30;;;;;;;9.05;6.00;;;20.10;99.90;;;;;;5051780;28;20082;-57
2023/02/02 04:28:56;;;;;;;8.57;5.72;;;20.10;99.90;;;;;;5033959;28;20116;-56
2023/02/02 04:31:22;;;;;;;8.52;5.72;;;20.10;99.90;;;;;;5055674;28;20029;-55
2023/02/02 04:33:48;;;;;;;9.77;6.40;;;20.10;99.90;;;;;;5055889;28;20021;-55
2023/02/02 04:36:13;;;;;;;10.05;6.07;;;20.10;99.90;;;;;;5037703;28;20029;-56
2023/02/02 04:38:39;;;;;;;8.10;5.60;;;20.10;99.90;;;;;;5055886;28;20052;-55
2023/02/02 04:41:10;;;;;;;8.88;5.63;;;20.10;99.90;;;;;;5055978;28;20481;-56
2023/02/02 04:43:37;;;;;;;10.23;6.28;;;20.10;99.90;;;;;;5055871;28;20025;-56
2023/02/02 04:46:03;;;;;;;7.68;5.80;;;20.10;99.90;;;;;;5055639;28;20020;-56
2023/02/02 04:48:29;;;;;;;8.45;4.68;;;20.00;99.90;;;;;;5055211;28;20021;-56
2023/02/02 04:51:04;;;;;;;10.32;6.18;;;20.00;99.90;;;;;;5055295;28;20102;-57
2023/02/02 04:53:31;;;;;;;8.02;5.82;;;20.00;99.90;;;;;;5055466;28;20431;-56
2023/02/02 04:56:03;;;;;;;9.18;5.50;;;20.00;99.90;;;;;;5055420;28;20053;-57
2023/02/02 04:58:29;;;;;;;8.55;5.38;;;20.00;99.90;;;;;;5055448;28;20377;-57
2023/02/02 05:00:55;;;;;;;9.30;6.15;;;20.00;99.90;;;;;;5036961;22;20053;-49
2023/02/02 05:03:20;;;;;;;9.82;6.05;;;20.00;99.90;;;;;;5017639;28;20027;-49
2023/02/02 05:05:46;;;;;;;8.63;5.82;;;20.00;99.90;;;;;;5035485;28;20021;-50
2023/02/02 05:08:12;;;;;;;9.32;5.93;;;20.00;99.90;;;;;;5017834;28;20025;-49
2023/02/02 05:10:41;;;;;;;9.30;5.57;;;19.90;99.90;;;;;;5035449;28;20037;-49
2023/02/02 05:13:08;;;;;;;8.45;5.75;;;20.00;99.90;;;;;;5035379;28;20072;-49
2023/02/02 05:15:34;;;;;;;7.32;5.07;;;20.00;99.90;;;;;;5035169;28;20053;-53
2023/02/02 05:18:00;;;;;;;8.15;5.80;;;19.90;99.90;;;;;;5035159;28;20076;-48
2023/02/02 05:20:25;;;;;;;8.10;5.60;;;20.00;99.90;;;;;;5035104;28;20362;-51
2023/02/02 05:22:51;;;;;;;8.02;5.53;;;19.90;99.90;;;;;;5035064;28;20477;-49
2023/02/02 05:25:17;;;;;;;9.88;5.85;;;19.90;99.90;;;;;;5017463;28;20033;-49
2023/02/02 05:27:45;;;;;;;10.30;6.18;;;19.90;99.90;;;;;;5017198;28;20029;-50
2023/02/02 05:30:12;;;;;;;8.70;5.80;;;19.90;99.90;;;;;;5034867;28;20026;-50
2023/02/02 05:32:38;;;;;;;8.82;5.63;;;19.90;99.90;;;;;;5035145;28;20025;-50
2023/02/02 05:35:04;;;;;;;7.10;5.00;;;19.90;99.90;;;;;;5035129;28;20366;-49
2023/02/02 05:37:30;;;;;;;9.77;6.05;;;19.90;99.90;;;;;;5034911;28;20470;-49
2023/02/02 05:39:55;;;;;;;8.25;5.45;;;19.90;99.90;;;;;;5017008;28;20031;-49
2023/02/02 05:42:21;;;;;;;8.57;5.68;;;19.90;99.90;;;;;;5033900;28;20029;-51
2023/02/02 05:44:47;;;;;;;8.45;5.68;;;19.90;99.90;;;;;;5034556;28;20029;-51
2023/02/02 05:47:13;;;;;;;8.32;5.72;;;19.80;99.90;;;;;;5034814;28;20079;-51
2023/02/02 05:49:39;;;;;;;8.48;5.65;;;19.80;99.90;;;;;;5034805;28;20112;-50
2023/02/02 05:52:05;;;;;;;9.23;5.38;;;19.80;99.90;;;;;;5034496;28;20116;-50
2023/02/02 05:54:30;;;;;;;8.02;5.90;;;19.90;99.90;;;;;;5016771;28;20056;-50
2023/02/02 05:56:59;;;;;;;7.38;5.22;;;19.80;99.90;;;;;;5034543;28;20053;-50
2023/02/02 05:59:26;;;;;;;6.78;4.95;;;19.80;99.90;;;;;;5034135;28;20040;-48
2023/02/02 06:01:53;;;;;;;9.52;5.35;;;19.80;99.90;;;;;;5034272;28;20037;-48
2023/02/02 06:04:19;;;;;;;6.95;5.00;;;19.80;99.90;;;;;;5034368;28;20036;-50
2023/02/02 06:06:46;;;;;;;8.05;5.53;;;19.80;99.90;;;;;;5034231;28;20030;-48
2023/02/02 06:09:12;;;;;;;7.15;4.90;;;19.80;99.90;;;;;;5034425;28;20025;-48
2023/02/02 06:11:38;;;;;;;7.28;5.25;;;19.80;99.90;;;;;;5034022;28;20037;-47
2023/02/02 06:14:04;;;;;;;8.05;5.57;;;19.80;99.90;;;;;;5034002;28;20488;-48
2023/02/02 06:16:30;;;;;;;9.32;5.68;;;19.80;99.90;;;;;;5033974;28;20153;-48
2023/02/02 06:18:56;;;;;;;9.30;5.82;;;19.80;99.90;;;;;;5033892;28;20094;-48
2023/02/02 06:21:23;;;;;;;7.00;5.00;;;19.80;99.90;;;;;;5034006;28;20187;-48
2023/02/02 06:23:49;;;;;;;8.10;4.82;;;19.80;99.90;;;;;;5033926;28;20489;-48
2023/02/02 06:26:16;;;;;;;7.30;5.15;;;19.80;99.90;;;;;;5033892;28;20029;-48
2023/02/02 06:28:42;;;;;;;7.20;4.88;;;19.80;99.90;;;;;;5033812;28;20440;-48
2023/02/02 06:31:10;;;;;;;9.30;4.72;;;19.80;99.90;;;;;;5033545;28;20035;-48
2023/02/02 06:33:36;;;;;;;;;;;19.80;99.90;;;;;;5034169;28;20025;-48
2023/02/02 06:36:03;;;;;;;8.35;5.22;;;19.80;99.90;;;;;;5033458;28;20274;-48
2023/02/02 06:38:31;;;;;;;8.00;4.22;;;19.80;99.90;;;;;;5033565;28;20108;-48
2023/02/02 06:41:00;;;;;;;9.00;5.45;;;19.80;99.90;;;;;;5033563;28;20047;-48
2023/02/02 06:43:25;;;;;;;9.07;5.18;;;19.70;99.90;;;;;;5033348;28;20060;-48
2023/02/02 06:45:51;;;;;;;9.00;5.15;;;19.70;99.90;;;;;;5033446;28;20049;-49
2023/02/02 06:48:17;;;;;;;10.20;5.10;;;19.70;99.90;;;;;;5033349;28;20044;-49
2023/02/02 06:50:43;;;;;;;7.93;4.95;;;19.70;99.90;;;;;;5033584;28;20053;-48
2023/02/02 06:53:08;;;;;;;8.32;5.03;;;19.60;99.90;;;;;;5033360;28;20504;-48
2023/02/02 06:55:34;;;;;;;7.10;4.93;;;19.70;99.90;;;;;;5033105;28;20070;-48
2023/02/02 06:58:00;;;;;;;10.55;5.13;;;19.70;99.90;;;;;;5033345;28;20072;-48
2023/02/02 07:00:28;;;;;;;7.10;4.90;;;19.70;99.90;;;;;;5032936;28;20042;-48
2023/02/02 07:02:54;;;;;;;;;;;19.60;99.90;;;;;;5015720;28;20044;-48
2023/02/02 07:05:22;;;;;;;7.88;4.88;;;19.70;99.90;;;;;;5033073;28;20348;-48
2023/02/02 07:07:51;;;;;;;6.97;4.50;;;19.60;99.90;;;;;;5015822;28;20025;-48
2023/02/02 07:10:17;;;;;;;9.57;5.20;;;19.60;99.90;;;;;;5033004;28;20037;-48
2023/02/02 07:12:44;;;;;;;9.48;4.70;;;19.60;99.90;;;;;;5015369;28;20091;-48
2023/02/02 07:15:10;;;;;;;9.55;5.13;;;19.60;99.90;;;;;;5033104;28;20545;-47
2023/02/02 07:17:36;;;;;;;11.32;4.93;;;19.50;99.90;;;;;;5032897;28;20061;-48
2023/02/02 07:20:02;;;;;;;8.75;4.90;;;19.60;99.90;;;;;;5033000;28;20029;-50
2023/02/02 07:22:27;;;;;;;11.93;5.20;;;19.50;99.90;;;;;;5032763;28;20032;-50
2023/02/02 07:24:53;;;;;;;6.40;4.25;;;19.50;99.90;;;;;;5032551;28;20029;-51
2023/02/02 07:27:19;;;;;;;8.73;5.20;;;19.50;99.90;;;;;;5032768;28;20040;-48
2023/02/02 07:29:45;;;;;;;7.68;4.70;;;19.50;99.90;;;;;;5015406;28;20025;-48
2023/02/02 07:32:12;;;;;;;7.05;4.72;;;19.50;99.90;;;;;;5032557;28;20033;-49
2023/02/02 07:34:38;;;;;;;5.38;4.28;;;19.50;99.90;;;;;;5015108;28;20025;-48
2023/02/02 07:37:04;;;;;;;6.43;4.60;;;19.50;99.90;;;;;;5032587;28;20489;-48
2023/02/02 07:39:29;;;;;;;7.15;4.88;;;19.50;99.90;;;;;;5032376;28;20143;-48
2023/02/02 07:41:55;;;;;;;5.50;4.05;;;19.50;99.90;;;;;;5032482;28;20032;-48
2023/02/02 07:44:21;;;;;;;7.00;4.40;;;19.50;99.90;;;;;;5015115;28;20029;-48
2023/02/02 07:46:47;;;;;;;8.38;4.65;;;19.50;99.90;;;;;;5032685;28;20102;-49
2023/02/02 07:49:15;;;;;;;9.43;5.32;;;19.50;99.90;;;;;;5032367;28;20026;-48
2023/02/02 07:51:41;;;;;;;8.52;4.70;;;19.50;99.90;;;;;;5032167;28;20131;-49
2023/02/02 07:54:07;;;;;;;7.63;4.70;;;19.50;99.90;;;;;;5032244;28;20104;-47
2023/02/02 07:56:33;;;;;;;8.98;4.35;;;19.50;99.90;;;;;;5014682;28;20021;-47
2023/02/02 07:58:59;;;;;;;7.10;4.53;;;19.50;99.90;;;;;;5014303;28;20500;-48
2023/02/02 08:01:26;;;;;;;9.38;4.80;;;19.50;99.90;;;;;;5032092;28;20401;-50
2023/02/02 08:03:54;;;;;;;7.47;4.60;;;19.50;99.90;;;;;;5031924;28;20045;-48
2023/02/02 08:06:25;;;;;;;6.70;4.50;;;19.50;99.90;;;;;;5032193;28;20084;-48
2023/02/02 08:08:51;;;;;;;7.45;4.85;;;19.50;99.90;;;;;;5032205;28;20032;-48
2023/02/02 08:11:19;;;;;;;8.60;4.60;;;19.50;99.90;;;;;;5014523;28;20105;-48
2023/02/02 08:13:48;;;;;;;8.43;5.18;;;19.50;99.90;;;;;;5014309;28;20112;-48
2023/02/02 08:16:15;;;;;;;8.20;5.15;;;19.60;99.90;;;;;;5032061;28;20504;-48
2023/02/02 08:18:42;;;;;;;6.00;4.40;;;19.60;99.90;;;;;;5014435;28;20430;-48
2023/02/02 08:21:08;;;;;;;8.70;6.07;;;19.60;99.90;;;;;;5032056;28;20045;-49
2023/02/02 08:23:35;;;;;;;6.97;5.15;;;19.60;99.90;;;;;;5031954;28;20033;-48
2023/02/02 08:26:21;;;;;;;8.27;5.82;;;19.60;99.90;;;;;;5032023;28;20432;-48
2023/02/02 08:28:53;;;;;;;8.18;5.07;;;19.70;99.90;;;;;;5014460;28;20029;-48
2023/02/02 08:31:35;;;;;;;7.00;5.28;;;19.70;99.90;;;;;;5031978;28;20041;-48
2023/02/02 08:34:01;;;;;;;9.68;5.47;;;19.70;99.90;;;;;;5031987;28;20029;-48
2023/02/02 08:36:28;;;;;;;7.43;5.45;;;19.70;99.90;;;;;;5031955;28;20516;-48
2023/02/02 08:38:54;;;;;;;11.35;5.47;;;19.80;99.90;;;;;;5031850;28;20037;-48
2023/02/02 08:41:22;;;;;;;8.82;5.43;;;19.80;99.90;;;;;;5032109;28;20025;-48
2023/02/02 08:43:49;;;;;;;9.85;5.97;;;19.80;99.90;;;;;;5014547;28;20388;-48
2023/02/02 08:46:17;;;;;;;8.07;5.43;;;19.80;99.90;;;;;;5031872;28;20068;-48
2023/02/02 08:48:42;;;;;;;9.18;6.32;;;19.80;99.90;;;;;;5031804;28;20037;-49
2023/02/02 08:51:11;;;;;;;10.45;5.43;;;19.80;99.90;;;;;;5031739;28;20034;-50
2023/02/02 08:53:37;;;;;;;8.35;5.88;;;19.80;99.90;;;;;;5031824;28;20104;-49
2023/02/02 08:56:06;;;;;;;10.20;6.55;;;19.90;99.90;;;;;;5031687;28;20018;-50
2023/02/02 08:58:32;;;;;;;11.45;5.50;;;19.90;99.90;;;;;;5031573;28;20053;-49
2023/02/02 09:01:19;;;;;;;8.40;5.32;;;19.90;99.90;;;;;;5030880;28;20052;-50
2023/02/02 09:03:45;;;;;;;8.77;5.57;;;19.90;99.90;;;;;;5030734;28;20022;-50
2023/02/02 09:06:16;;;;;;;8.43;5.75;;;19.90;99.90;;;;;;5031880;28;20032;-49
2023/02/02 09:08:43;;;;;;;9.40;5.75;;;19.90;99.90;;;;;;5032226;28;20037;-49
2023/02/02 09:11:15;;;;;;;7.20;5.47;;;19.90;99.90;;;;;;5014007;28;20033;-49
2023/02/02 09:13:46;;;;;;;9.75;5.72;;;19.90;99.90;;;;;;5031620;28;20025;-48
2023/02/02 09:16:14;;;;;;;7.80;5.40;;;20.00;99.90;;;;;;5031962;28;20462;-49
2023/02/02 09:18:40;;;;;;;8.65;6.20;;;20.00;99.90;;;;;;5034837;28;20492;-49
2023/02/02 09:21:09;;;;;;;8.93;5.93;;;20.00;99.90;;;;;;5034366;28;20030;-49
2023/02/02 09:23:37;;;;;;;8.40;5.43;;;20.00;99.90;;;;;;5034489;28;20030;-50
2023/02/02 09:26:27;;;;;;;8.20;5.25;;;20.10;99.90;;;;;;5035168;28;20442;-49
2023/02/02 09:28:56;;;;;;;10.07;5.45;;;20.10;99.90;;;;;;5034479;28;20032;-49
2023/02/02 09:31:22;;;;;;;8.35;5.47;;;20.10;99.90;;;;;;5034994;28;20391;-50
2023/02/02 09:33:48;;;;;;;9.90;5.95;;;20.10;99.90;;;;;;5034852;28;20485;-49
2023/02/02 09:36:16;;;;;;;6.95;5.13;;;20.10;99.90;;;;;;5034099;28;20041;-49
2023/02/02 09:38:43;;;;;;;8.30;4.80;;;20.10;99.90;;;;;;5034129;28;20438;-48
2023/02/02 09:41:20;;;;;;;11.77;5.60;;;20.20;99.90;;;;;;5034197;28;20018;-49
2023/02/02 09:43:48;;;;;;;9.75;4.82;;;20.20;99.90;;;;;;5034177;28;20029;-49
2023/02/02 09:46:41;;;;;;;8.27;5.40;;;20.20;99.90;;;;;;5034252;28;20049;-49
2023/02/02 09:49:14;;;;;;;7.70;5.10;;;20.30;99.90;;;;;;4983782;28;20043;-49
2023/02/02 09:51:48;;;;;;;17.27;5.82;;;20.30;99.90;;;;;;5049044;28;20063;-49
2023/02/02 09:54:28;;;;;;;7.20;5.45;;;20.30;99.90;;;;;;5031999;28;20017;-48
2023/02/02 09:56:57;;;;;;;9.27;5.20;;;20.30;99.90;;;;;;5015815;28;20022;-50
2023/02/02 09:59:29;;;;;;;8.75;5.22;;;20.40;99.90;;;;;;5034008;28;20448;-50
2023/02/02 10:02:02;;;;;;;6.80;4.80;;;20.40;99.90;;;;;;5015127;28;20065;-49
2023/02/02 10:04:34;;;;;;;7.88;4.47;;;20.50;99.90;;;;;;5034209;28;20029;-49
2023/02/02 10:07:07;;;;;;;6.30;4.40;;;20.50;99.90;;;;;;5034154;28;20029;-49
2023/02/02 10:10:09;;;;;;;9.80;4.95;;;20.50;99.90;;;;;;5016103;28;20018;-51
2023/02/02 10:12:47;;;;;;;9.40;5.20;;;20.60;99.90;;;;;;4999557;28;20075;-50
2023/02/02 10:15:49;;;;;;;9.80;4.57;;;20.60;99.90;;;;;;5030663;28;20028;-49
2023/02/02 10:18:27;;;;;;;7.72;4.80;;;20.60;99.90;;;;;;5032681;28;20022;-49
2023/02/02 10:21:01;;;;;;;;;;;20.70;99.90;;;;;;5016537;28;20021;-49
2023/02/02 10:23:34;;;;;;;8.07;4.80;;;20.80;99.90;;;;;;5034074;28;19912;-50
2023/02/02 10:26:06;;;;;;;8.77;4.57;;;20.80;99.90;;;;;;5033742;28;20025;-49
2023/02/02 10:28:57;;;;;;;11.88;4.97;;;20.80;99.90;;;;;;5033599;28;20021;-54
2023/02/02 10:31:43;;;;;;;5.75;3.92;;;20.90;99.90;;;;;;5033673;28;20052;-49
2023/02/02 10:34:30;;;;;;;9.57;4.20;;;20.90;99.90;;;;;;5033677;28;20493;-49
2023/02/02 10:37:07;;;;;;;8.43;4.75;;;21.00;99.90;;;;;;5033919;28;20384;-49
2023/02/02 10:40:03;;;;;;;24.80;5.50;;;21.00;99.90;;;;;;5033457;28;20060;-48
2023/02/02 10:42:44;;;;;;;17.98;5.28;;;21.10;99.90;;;;;;5033387;28;20032;-49
2023/02/02 10:45:16;;;;;;;33.78;6.97;;;21.10;99.90;;;;;;5033533;28;20053;-49
2023/02/02 10:47:43;;;;;;;36.53;7.10;;;21.20;99.90;;;;;;5033462;28;20032;-50
2023/02/02 10:50:12;;;;;;;37.78;5.35;;;21.20;99.90;;;;;;5016004;28;20059;-49
2023/02/02 10:52:42;;;;;;;262.05;31.85;;;21.20;99.90;;;;;;5033298;28;20036;-49
2023/02/02 10:55:31;;;;;;;61.22;10.10;;;21.30;99.90;;;;;;5033142;28;20424;-49
2023/02/02 10:58:12;;;;;;;55.90;8.95;;;21.30;99.90;;;;;;5015641;28;20109;-49
2023/02/02 11:00:47;;;;;;;40.10;8.70;;;21.40;99.90;;;;;;5033009;28;20429;-49
2023/02/02 11:03:16;;;;;;;50.75;8.27;;;21.40;99.90;;;;;;5032982;28;20410;-49
2023/02/02 11:08:37;;;;;;;58.28;8.77;;;21.50;99.90;;;;;;5030811;28;20110;-48
2023/02/02 11:11:21;;;;;;;56.72;7.72;;;21.60;99.90;;;;;;5030163;28;20037;-49
2023/02/02 11:13:57;;;;;;;46.60;8.00;;;21.60;99.90;;;;;;5029562;28;20330;-49
2023/02/02 11:16:28;;;;;;;32.50;7.45;;;21.70;99.90;;;;;;5032862;28;20373;-49
2023/02/02 11:18:55;;;;;;;41.55;8.63;;;21.70;99.90;;;;;;5032184;28;20025;-49
2023/02/02 11:21:55;;;;;;;27.63;6.30;;;21.80;99.90;;;;;;5032559;28;20041;-49
2023/02/02 11:24:30;;;;;;;28.15;7.68;;;21.70;99.90;;;;;;5032118;28;20326;-48
2023/02/02 11:27:00;;;;;;;36.53;7.72;;;21.80;99.90;;;;;;5047434;28;20036;-49
2023/02/02 11:29:36;;;;;;;30.52;7.80;;;21.80;99.90;;;;;;5032474;28;20044;-48
2023/02/02 11:32:34;;;;;;;30.67;7.20;;;21.90;99.90;;;;;;5030760;28;20037;-48
2023/02/02 11:35:05;;;;;;;42.38;7.78;;;21.90;99.90;;;;;;5032466;28;20160;-49
2023/02/02 11:37:37;;;;;;;26.80;8.40;;;22.00;99.90;;;;;;5032364;28;20049;-49
2023/02/02 11:40:27;;;;;;;25.40;6.57;;;22.00;99.90;;;;;;5031782;28;20034;-49
2023/02/02 11:42:59;;;;;;;21.40;7.85;;;22.00;99.90;;;;;;5032415;28;20033;-49
2023/02/02 11:45:48;;;;;;;35.55;8.65;;;22.10;99.90;;;;;;5032459;28;20037;-48
2023/02/02 11:48:21;;;;;;;27.90;8.00;;;22.10;99.90;;;;;;5032524;28;20026;-49
2023/02/02 11:50:52;;;;;;;19.88;7.47;;;22.10;99.90;;;;;;5032080;28;20033;-49
2023/02/02 11:53:27;;;;;;;19.45;7.00;;;22.10;99.90;;;;;;5032181;28;20056;-49
2023/02/02 11:55:54;;;;;;;25.88;7.82;;;22.20;99.90;;;;;;5031507;28;20021;-49
2023/02/02 11:58:26;;;;;;;20.45;6.82;;;22.20;99.90;;;;;;5013875;28;20032;-49
2023/02/02 12:01:02;;;;;;;26.88;7.88;;;22.20;99.90;;;;;;5028922;28;20852;-47
2023/02/02 12:03:37;;;;;;;26.52;7.82;;;22.20;99.90;;;;;;5028641;28;20029;-48
2023/02/02 12:06:32;;;;;;;19.75;7.40;;;22.20;99.90;;;;;;5028594;28;20036;-49
2023/02/02 12:09:00;;;;;;;18.67;7.32;;;22.30;99.90;;;;;;5008506;28;20034;-50
2023/02/02 12:11:29;;;;;;;23.67;7.63;;;22.30;99.90;;;;;;5029257;28;20449;-49
2023/02/02 12:14:23;;;;;;;26.77;8.40;;;22.30;99.90;;;;;;5027679;28;20390;-49
2023/02/02 12:16:54;;;;;;;23.58;7.53;;;22.30;99.90;;;;;;5029067;28;20355;-49
2023/02/02 12:19:41;;;;;;;23.95;7.47;;;22.40;99.90;;;;;;5029209;28;20029;-50
2023/02/02 12:22:30;;;;;;;19.67;8.38;;;22.50;99.90;;;;;;5027241;28;20057;-50
2023/02/02 12:25:14;;;;;;;21.45;7.78;;;22.50;99.90;;;;;;5029686;28;20034;-49
2023/02/02 12:28:02;;;;;;;21.75;8.15;;;22.50;99.90;;;;;;5012328;28;20033;-49
2023/02/02 12:31:01;;;;;;;18.60;7.72;;;22.50;99.90;;;;;;5030354;28;20021;-49
2023/02/02 12:33:40;;;;;;;15.95;7.80;;;22.60;99.90;;;;;;5029502;28;20116;-49
2023/02/02 12:36:44;;;;;;;19.95;8.45;;;22.60;99.90;;;;;;5029300;28;20092;-49
2023/02/02 12:39:26;;;;;;;24.70;9.68;;;22.70;99.90;;;;;;5028269;28;20034;-49
2023/02/02 12:42:10;;;;;;;17.90;8.15;;;22.70;99.90;;;;;;5029131;28;20022;-49
2023/02/02 12:44:45;;;;;;;20.20;8.30;;;22.70;99.90;;;;;;5025714;28;20362;-49
2023/02/02 12:47:36;;;;;;;18.20;7.93;;;22.80;99.90;;;;;;5026409;28;20052;-49
2023/02/02 12:50:24;;;;;;;18.83;8.45;;;22.80;99.90;;;;;;5026751;28;20033;-49
2023/02/02 12:53:11;;;;;;;20.02;8.60;;;22.80;99.90;;;;;;5030264;28;20175;-49
2023/02/02 12:56:01;;;;;;;23.13;8.93;;;22.80;99.90;;;;;;5011819;28;20029;-49
2023/02/02 12:58:55;;;;;;;19.90;9.15;;;22.90;99.90;;;;;;5026293;28;20025;-49
2023/02/02 13:01:47;;;;;;;19.90;9.30;;;22.90;99.90;;;;;;5019340;28;20060;-49
2023/02/02 13:04:34;;;;;;;19.70;10.38;;;22.90;99.90;;;;;;5023892;28;20101;-49
2023/02/02 13:07:14;;;;;;;19.58;9.65;;;22.90;99.90;;;;;;5021552;28;20025;-49
2023/02/02 13:09:59;;;;;;;18.85;9.18;;;23.00;99.90;;;;;;5022290;28;20498;-50
2023/02/02 13:12:27;;;;;;;19.70;10.63;;;23.00;99.90;;;;;;5022046;28;20421;-49
2023/02/02 13:15:07;;;;;;;16.88;10.02;;;23.00;99.90;;;;;;5020611;28;20071;-50